Time;durP1;ratioP1;P1;durP2;ratioP2;P2;SDS_P1;SDS_P2;PMS_P1;PMS_P2;Temp;Humidity;BMP_temperature;BMP_pressure;BME280_temperature;BME280_humidity;BME280_pressure;Samples;Min_cycle;Max_cycle;Signal;HPM_P1;HPM_P2
2022/04/13 00:00:27;;;;;;;14.52;8.05;;;12.50;99.70;;;;;;5071863;28;20679;-85
2022/04/13 00:03:00;;;;;;;17.65;8.38;;;12.20;99.90;;;;;;5072077;28;20086;-85
2022/04/13 00:05:25;;;;;;;17.45;8.35;;;12.00;99.90;;;;;;5071981;28;20036;-85
2022/04/13 00:07:54;;;;;;;12.00;7.15;;;11.70;99.90;;;;;;5054376;28;20028;-86
2022/04/13 00:10:20;;;;;;;12.18;6.80;;;11.50;99.90;;;;;;5072238;28;20048;-85
2022/04/13 00:12:45;;;;;;;12.45;6.72;;;11.20;99.90;;;;;;5071807;28;20063;-85
2022/04/13 00:15:19;;;;;;;16.90;6.40;;;11.10;99.90;;;;;;5074639;28;20021;-86
2022/04/13 00:17:44;;;;;;;15.00;6.70;;;11.00;99.90;;;;;;5075598;28;20426;-85
2022/04/13 00:20:11;;;;;;;18.70;8.10;;;10.90;99.90;;;;;;5075769;28;20021;-86
2022/04/13 00:22:47;;;;;;;15.02;7.03;;;10.80;99.90;;;;;;5058138;28;20491;-86
2022/04/13 00:25:57;;;;;;;15.70;7.45;;;10.70;99.90;;;;;;5057625;28;20052;-86
2022/04/13 00:28:22;;;;;;;14.95;7.00;;;10.60;99.90;;;;;;5075478;28;20530;-86
2022/04/13 00:30:48;;;;;;;23.52;9.13;;;10.50;99.90;;;;;;5075513;28;20108;-86
2022/04/13 00:33:16;;;;;;;19.75;8.02;;;10.40;99.90;;;;;;5057539;28;20020;-86
2022/04/13 00:35:41;;;;;;;12.13;6.25;;;10.30;99.90;;;;;;5057309;28;20032;-86
2022/04/13 00:38:07;;;;;;;16.05;7.28;;;10.30;99.90;;;;;;5075595;28;20028;-86
2022/04/13 00:40:39;;;;;;;22.70;8.20;;;10.20;99.90;;;;;;5057347;28;20108;-86
2022/04/13 00:43:05;;;;;;;21.98;7.93;;;10.10;99.90;;;;;;5075227;28;20099;-86
2022/04/13 00:45:33;;;;;;;14.15;7.32;;;10.10;99.90;;;;;;5057139;28;20120;-85
2022/04/13 00:48:01;;;;;;;18.95;9.93;;;10.10;99.90;;;;;;5075194;28;20465;-84
2022/04/13 00:50:35;;;;;;;27.48;12.68;;;10.00;99.90;;;;;;5075202;28;20079;-85
2022/04/13 00:53:01;;;;;;;23.52;10.95;;;10.00;99.90;;;;;;5074988;28;20032;-85
2022/04/13 00:55:30;;;;;;;22.85;9.15;;;9.90;99.90;;;;;;5075074;28;20099;-84
2022/04/13 00:57:58;;;;;;;15.90;7.00;;;9.90;99.90;;;;;;5057030;28;20024;-85
2022/04/13 01:00:25;;;;;;;14.63;7.47;;;9.80;99.90;;;;;;5074586;28;20021;-84
2022/04/13 01:02:53;;;;;;;12.25;6.15;;;9.80;99.90;;;;;;5074911;28;20262;-85
2022/04/13 01:05:20;;;;;;;11.07;5.60;;;9.70;99.90;;;;;;5074991;28;20464;-86
2022/04/13 01:07:47;;;;;;;16.88;6.07;;;9.70;99.90;;;;;;5056944;28;20033;-85
2022/04/13 01:10:13;;;;;;;10.70;5.72;;;9.80;99.90;;;;;;5074814;28;20035;-85
2022/04/13 01:12:38;;;;;;;18.55;5.18;;;9.90;99.90;;;;;;5056534;28;20483;-85
2022/04/13 01:15:08;;;;;;;12.75;5.38;;;9.90;99.90;;;;;;5056523;28;20050;-85
2022/04/13 01:17:35;;;;;;;9.43;5.25;;;9.90;99.90;;;;;;5074692;28;20025;-86
2022/04/13 01:20:05;;;;;;;6.88;3.92;;;9.90;99.90;;;;;;5074601;28;20476;-85
2022/04/13 01:22:47;;;;;;;10.90;4.68;;;9.80;99.90;;;;;;5074513;28;20020;-84
2022/04/13 01:25:31;;;;;;;9.65;4.80;;;10.00;99.90;;;;;;5074229;28;20047;-85
2022/04/13 01:27:57;;;;;;;10.60;5.82;;;10.10;99.90;;;;;;5074372;28;20081;-85
2022/04/13 01:30:27;;;;;;;12.35;5.15;;;10.10;99.90;;;;;;5074298;28;20032;-85
2022/04/13 01:32:53;;;;;;;11.88;5.43;;;10.10;99.90;;;;;;5074215;28;20527;-84
2022/04/13 01:35:18;;;;;;;9.07;5.38;;;10.10;99.90;;;;;;5074284;28;20112;-85
2022/04/13 01:37:46;;;;;;;14.07;5.97;;;10.00;99.90;;;;;;5073925;28;20048;-85
2022/04/13 01:40:12;;;;;;;10.02;6.05;;;10.00;99.90;;;;;;5074276;28;20029;-85
2022/04/13 01:42:41;;;;;;;14.13;5.68;;;9.90;99.90;;;;;;5055902;28;20051;-85
2022/04/13 01:45:07;;;;;;;8.52;5.18;;;9.90;99.90;;;;;;5056110;28;20032;-85
2022/04/13 01:47:40;;;;;;;10.93;5.38;;;9.80;99.90;;;;;;5073951;28;20484;-85
2022/04/13 01:50:09;;;;;;;9.05;5.10;;;9.70;99.90;;;;;;5074062;28;20021;-85
2022/04/13 01:52:35;;;;;;;15.00;6.30;;;9.70;99.90;;;;;;5073858;28;20077;-85
2022/04/13 01:55:02;;;;;;;10.68;4.95;;;9.60;99.90;;;;;;5073736;28;20095;-85
2022/04/13 01:57:28;;;;;;;9.43;5.18;;;9.50;99.90;;;;;;5056005;28;20464;-85
2022/04/13 01:59:53;;;;;;;9.68;4.57;;;9.40;99.90;;;;;;5073737;28;20028;-85
2022/04/13 02:02:19;;;;;;;17.52;6.57;;;9.30;99.90;;;;;;5055938;28;20388;-86
2022/04/13 02:04:45;;;;;;;9.13;4.60;;;9.30;99.90;;;;;;5073802;28;20056;-86
2022/04/13 02:07:18;;;;;;;11.23;4.40;;;9.20;99.90;;;;;;5073746;28;20040;-85
2022/04/13 02:09:44;;;;;;;7.57;4.07;;;9.20;99.90;;;;;;5073769;28;20024;-86
2022/04/13 02:12:12;;;;;;;15.02;4.25;;;9.20;99.90;;;;;;5073642;28;20107;-86
2022/04/13 02:14:38;;;;;;;7.60;3.60;;;9.10;99.90;;;;;;5055611;28;20035;-85
2022/04/13 02:17:03;;;;;;;23.23;3.70;;;9.10;99.90;;;;;;5073538;28;20028;-86
2022/04/13 02:19:44;;;;;;;4.85;3.10;;;9.10;99.90;;;;;;5073548;28;20021;-86
2022/04/13 02:22:10;;;;;;;15.30;4.63;;;9.10;99.90;;;;;;5073231;28;20020;-86
2022/04/13 02:24:42;;;;;;;7.18;3.78;;;9.10;99.90;;;;;;5072930;28;20469;-86
2022/04/13 02:27:09;;;;;;;5.18;3.28;;;9.10;99.90;;;;;;5055482;28;20029;-86
2022/04/13 02:29:51;;;;;;;7.45;3.83;;;9.10;99.90;;;;;;5072956;28;20032;-86
2022/04/13 02:32:17;;;;;;;8.90;3.13;;;9.10;99.90;;;;;;5072960;28;20494;-85
2022/04/13 02:34:44;;;;;;;7.50;3.53;;;9.10;99.90;;;;;;5073199;28;20024;-85
2022/04/13 02:37:10;;;;;;;8.68;3.22;;;9.10;99.90;;;;;;5054707;28;20020;-86
2022/04/13 02:39:36;;;;;;;4.93;3.30;;;9.00;99.90;;;;;;5073310;28;20023;-85
2022/04/13 02:42:12;;;;;;;12.20;3.63;;;9.00;99.90;;;;;;5073213;28;20032;-86
2022/04/13 02:44:37;;;;;;;6.50;2.97;;;9.00;99.90;;;;;;5072812;28;20021;-85
2022/04/13 02:47:36;;;;;;;4.10;2.65;;;8.90;99.90;;;;;;5073008;28;20060;-86
2022/04/13 02:50:03;;;;;;;8.13;3.35;;;8.90;99.90;;;;;;5073050;28;20097;-85
2022/04/13 02:52:34;;;;;;;9.57;2.80;;;8.90;99.90;;;;;;5054980;28;20559;-85
2022/04/13 02:54:59;;;;;;;5.05;2.55;;;8.90;99.90;;;;;;5072787;28;20497;-85
2022/04/13 02:57:36;;;;;;;7.28;2.55;;;8.80;99.90;;;;;;5055071;28;20020;-86
2022/04/13 03:00:03;;;;;;;4.22;2.35;;;8.80;99.90;;;;;;5072823;28;20472;-86
2022/04/13 03:02:34;;;;;;;8.63;2.53;;;8.80;99.90;;;;;;5054838;28;20119;-86
2022/04/13 03:04:59;;;;;;;6.60;2.65;;;8.80;99.90;;;;;;5072691;28;20502;-85
2022/04/13 03:07:28;;;;;;;5.15;2.53;;;8.80;99.90;;;;;;5072931;28;20103;-86
2022/04/13 03:10:02;;;;;;;10.75;2.80;;;8.80;99.90;;;;;;5072860;28;20415;-86
2022/04/13 03:12:28;;;;;;;6.25;3.55;;;8.80;99.90;;;;;;5072712;28;20409;-85
2022/04/13 03:15:23;;;;;;;7.63;2.85;;;8.80;99.90;;;;;;5072599;28;20024;-85
2022/04/13 03:17:50;;;;;;;10.68;2.78;;;8.80;99.90;;;;;;5055141;28;20021;-85
2022/04/13 03:20:34;;;;;;;5.55;2.30;;;8.70;99.90;;;;;;5072926;28;20028;-85
2022/04/13 03:23:00;;;;;;;6.07;2.88;;;8.70;99.90;;;;;;5072454;28;20021;-85
2022/04/13 03:25:26;;;;;;;4.38;2.65;;;8.80;99.90;;;;;;5071862;28;20508;-85
2022/04/13 03:28:25;;;;;;;4.78;2.40;;;8.80;99.90;;;;;;5072775;28;20035;-85
2022/04/13 03:30:50;;;;;;;4.38;2.63;;;8.80;99.90;;;;;;5072296;28;20020;-85
2022/04/13 03:33:17;;;;;;;9.80;3.65;;;8.80;99.90;;;;;;5072584;28;20051;-85
2022/04/13 03:35:45;;;;;;;6.25;2.63;;;8.80;99.90;;;;;;5072870;28;20025;-86
2022/04/13 03:38:11;;;;;;;6.47;3.05;;;8.80;99.90;;;;;;5054847;28;20395;-86
2022/04/13 03:40:36;;;;;;;6.35;2.90;;;8.80;99.90;;;;;;5072813;28;20103;-86
2022/04/13 03:43:17;;;;;;;4.93;2.65;;;8.80;99.90;;;;;;5072738;28;20024;-86
2022/04/13 03:45:43;;;;;;;6.60;2.90;;;8.80;99.90;;;;;;5054430;28;20111;-85
2022/04/13 03:48:08;;;;;;;4.32;2.75;;;8.70;99.90;;;;;;5073837;28;20154;-86
2022/04/13 03:50:34;;;;;;;5.70;3.08;;;8.70;99.90;;;;;;5076320;28;20047;-86
2022/04/13 03:53:13;;;;;;;4.63;2.60;;;8.70;99.90;;;;;;5076109;28;20103;-85
2022/04/13 03:55:38;;;;;;;8.45;3.33;;;8.60;99.90;;;;;;5076057;28;20366;-85
2022/04/13 03:58:04;;;;;;;6.13;2.85;;;8.60;99.90;;;;;;5076129;28;20031;-85
2022/04/13 04:00:46;;;;;;;7.50;2.60;;;8.70;99.90;;;;;;5075935;28;20464;-85
2022/04/13 04:03:12;;;;;;;4.38;2.45;;;8.60;99.90;;;;;;5058096;28;20396;-85
2022/04/13 04:06:05;;;;;;;10.00;2.72;;;8.60;99.90;;;;;;5075893;28;20029;-85
2022/04/13 04:08:34;;;;;;;4.72;2.25;;;8.60;99.90;;;;;;5057921;28;20377;-85
2022/04/13 04:11:20;;;;;;;5.60;2.65;;;8.50;99.90;;;;;;5054031;28;20029;-86
2022/04/13 04:13:46;;;;;;;8.80;2.67;;;8.60;99.90;;;;;;5062638;28;20028;-86
2022/04/13 04:16:36;;;;;;;9.93;3.03;;;8.50;99.90;;;;;;5057859;28;20392;-86
2022/04/13 04:19:02;;;;;;;10.02;2.60;;;8.50;99.90;;;;;;5075685;28;20056;-86
2022/04/13 04:21:27;;;;;;;7.38;2.47;;;8.40;99.90;;;;;;5057873;28;20071;-85
2022/04/13 04:23:59;;;;;;;9.50;2.65;;;8.40;99.90;;;;;;5075755;28;20020;-86
2022/04/13 04:26:34;;;;;;;6.32;2.92;;;8.40;99.90;;;;;;5057487;28;20139;-86
2022/04/13 04:29:00;;;;;;;5.60;2.70;;;8.40;99.90;;;;;;5057652;28;20016;-86
2022/04/13 04:34:13;;;;;;;5.65;2.88;;;8.40;99.90;;;;;;5055691;28;20109;-86
2022/04/13 04:36:39;;;;;;;6.32;2.53;;;8.40;99.90;;;;;;5055583;28;20044;-86
2022/04/13 04:39:36;;;;;;;5.75;2.70;;;8.30;99.90;;;;;;5064301;28;20033;-86
2022/04/13 04:42:04;;;;;;;6.72;2.80;;;8.40;99.90;;;;;;5075455;28;20107;-86
2022/04/13 04:44:29;;;;;;;7.45;2.97;;;8.40;99.90;;;;;;5057126;28;20024;-85
2022/04/13 04:46:55;;;;;;;7.38;2.40;;;8.50;99.90;;;;;;5057432;28;20020;-85
2022/04/13 04:49:21;;;;;;;6.40;2.42;;;8.50;99.90;;;;;;5075220;28;20035;-85
2022/04/13 04:51:46;;;;;;;7.47;2.13;;;8.50;99.90;;;;;;5075262;28;20532;-86
2022/04/13 04:54:28;;;;;;;9.68;2.53;;;8.50;99.90;;;;;;5075328;28;20036;-86
2022/04/13 04:56:53;;;;;;;7.63;2.45;;;8.50;99.90;;;;;;5075102;28;20033;-85
2022/04/13 04:59:19;;;;;;;4.90;2.53;;;8.60;99.90;;;;;;5074435;28;20426;-86
2022/04/13 05:01:44;;;;;;;4.65;2.05;;;8.50;99.90;;;;;;5074626;28;20032;-87
2022/04/13 05:04:10;;;;;;;6.40;2.72;;;8.50;99.90;;;;;;5074364;28;20025;-86
2022/04/13 05:06:56;;;;;;;4.43;2.13;;;8.50;99.90;;;;;;5074283;28;20037;-86
2022/04/13 05:09:22;;;;;;;4.22;2.85;;;8.60;99.90;;;;;;5056818;28;20021;-86
2022/04/13 05:11:52;;;;;;;7.82;2.72;;;8.60;99.90;;;;;;5048767;28;20025;-86
2022/04/13 05:14:20;;;;;;;5.60;2.58;;;8.60;99.90;;;;;;5057358;28;20021;-86
2022/04/13 05:16:46;;;;;;;5.72;2.15;;;8.50;99.90;;;;;;5074339;28;20029;-86
2022/04/13 05:19:18;;;;;;;7.50;2.28;;;8.60;99.90;;;;;;5074587;28;20029;-85
2022/04/13 05:21:44;;;;;;;5.28;2.22;;;8.60;99.90;;;;;;5074499;28;20032;-86
2022/04/13 05:24:10;;;;;;;3.53;2.30;;;8.60;99.90;;;;;;5073879;28;20029;-86
2022/04/13 05:26:37;;;;;;;3.15;2.28;;;8.70;99.90;;;;;;5053006;28;20041;-86
2022/04/13 05:29:17;;;;;;;5.50;2.67;;;8.70;99.90;;;;;;5054163;28;20404;-86
2022/04/13 05:31:43;;;;;;;4.25;2.08;;;8.70;99.90;;;;;;5052520;28;20366;-85
2022/04/13 05:34:14;;;;;;;3.30;2.17;;;8.80;99.90;;;;;;5053948;28;20067;-86
2022/04/13 05:36:40;;;;;;;4.60;2.33;;;8.80;99.90;;;;;;5054201;28;20096;-86
2022/04/13 05:39:07;;;;;;;5.18;2.55;;;8.90;99.90;;;;;;5053921;28;20060;-86
2022/04/13 05:41:33;;;;;;;7.13;2.30;;;8.90;99.90;;;;;;5054010;28;20025;-86
2022/04/13 05:44:03;;;;;;;7.30;2.60;;;9.00;99.90;;;;;;5053667;28;20032;-85
2022/04/13 05:46:28;;;;;;;4.25;2.42;;;9.10;99.90;;;;;;5053621;28;20025;-85
2022/04/13 05:49:01;;;;;;;10.23;3.20;;;9.20;99.90;;;;;;5053885;28;20031;-85
2022/04/13 05:51:26;;;;;;;5.97;2.60;;;9.30;99.90;;;;;;5053788;28;20067;-86
2022/04/13 05:53:52;;;;;;;4.60;2.40;;;9.40;99.90;;;;;;5053468;28;20029;-85
2022/04/13 05:56:18;;;;;;;5.88;2.35;;;9.50;99.90;;;;;;5052583;28;20412;-85
2022/04/13 05:58:44;;;;;;;7.53;2.55;;;9.60;99.90;;;;;;5053530;28;20021;-85
2022/04/13 06:01:09;;;;;;;7.50;2.08;;;9.70;99.90;;;;;;5053570;28;20028;-86
2022/04/13 06:03:36;;;;;;;5.57;2.85;;;9.80;99.90;;;;;;5053502;28;20469;-86
2022/04/13 06:06:01;;;;;;;5.95;2.78;;;9.80;99.90;;;;;;5053651;28;20029;-85
2022/04/13 06:08:29;;;;;;;3.78;2.22;;;9.90;99.90;;;;;;5053727;28;20036;-85
2022/04/13 06:11:00;;;;;;;4.88;2.17;;;10.00;99.90;;;;;;5051682;28;20025;-85
2022/04/13 06:13:41;;;;;;;4.88;2.25;;;10.10;99.90;;;;;;5052820;28;20021;-85
2022/04/13 06:16:08;;;;;;;3.95;2.05;;;10.20;99.90;;;;;;5053485;28;20017;-85
2022/04/13 06:18:53;;;;;;;6.53;2.50;;;10.30;99.90;;;;;;5052108;28;20048;-85
2022/04/13 06:21:19;;;;;;;10.20;2.33;;;10.50;99.90;;;;;;5052069;28;20024;-86
2022/04/13 06:23:53;;;;;;;4.35;2.40;;;10.60;99.90;;;;;;5053256;28;20033;-86
2022/04/13 06:26:19;;;;;;;5.38;2.35;;;10.70;99.90;;;;;;5067254;28;20500;-85
2022/04/13 06:28:59;;;;;;;3.85;2.00;;;10.80;99.90;;;;;;5072987;28;20078;-86
2022/04/13 06:31:24;;;;;;;6.15;2.45;;;11.00;99.90;;;;;;5073013;28;20032;-86
2022/04/13 06:33:55;;;;;;;5.57;2.22;;;11.10;99.90;;;;;;5055068;28;20028;-86
2022/04/13 06:36:21;;;;;;;9.80;1.92;;;11.20;99.90;;;;;;5072964;28;20118;-86
2022/04/13 06:38:48;;;;;;;5.05;2.03;;;11.30;99.90;;;;;;5054936;28;20059;-87
2022/04/13 06:41:14;;;;;;;6.32;2.17;;;11.40;99.90;;;;;;5073009;28;20029;-86
2022/04/13 06:43:40;;;;;;;3.58;2.33;;;11.40;99.90;;;;;;5072566;28;20051;-86
2022/04/13 06:46:06;;;;;;;3.28;2.05;;;11.40;99.90;;;;;;5072956;28;20107;-86
2022/04/13 06:48:49;;;;;;;5.43;2.47;;;11.40;99.90;;;;;;5072499;28;20036;-87
2022/04/13 06:51:15;;;;;;;5.15;2.42;;;11.40;99.90;;;;;;5072940;28;20016;-85
2022/04/13 06:53:43;;;;;;;3.30;2.13;;;11.50;99.90;;;;;;5072732;28;20021;-87
2022/04/13 06:56:09;;;;;;;5.35;2.58;;;11.50;99.90;;;;;;5054443;28;20020;-87
2022/04/13 06:58:34;;;;;;;8.48;3.13;;;11.50;99.90;;;;;;5072473;28;20021;-87
2022/04/13 07:01:00;;;;;;;7.65;2.70;;;11.50;99.90;;;;;;5072611;28;20078;-87
2022/04/13 07:03:39;;;;;;;6.97;2.92;;;11.60;99.90;;;;;;5054734;28;20031;-87
2022/04/13 07:06:04;;;;;;;7.35;3.25;;;11.70;99.90;;;;;;5072669;28;20577;-87
2022/04/13 07:08:42;;;;;;;10.00;2.97;;;11.80;99.90;;;;;;5054757;28;20052;-87
2022/04/13 07:11:08;;;;;;;6.03;2.80;;;12.00;99.90;;;;;;5072722;28;20035;-87
2022/04/13 07:13:36;;;;;;;3.72;2.33;;;12.10;99.90;;;;;;5072225;28;20033;-87
2022/04/13 07:16:01;;;;;;;5.13;2.60;;;12.20;99.90;;;;;;5072671;28;20369;-87
2022/04/13 07:18:31;;;;;;;4.70;2.58;;;12.30;99.90;;;;;;5054662;28;20111;-87
2022/04/13 07:20:56;;;;;;;6.40;2.67;;;12.40;99.90;;;;;;5072549;28;20028;-87
2022/04/13 07:23:24;;;;;;;4.50;2.28;;;12.60;99.90;;;;;;5074308;28;20074;-87
2022/04/13 07:26:03;;;;;;;5.50;2.80;;;12.80;99.90;;;;;;5058324;28;20052;-87
2022/04/13 07:28:29;;;;;;;6.90;2.85;;;12.90;99.90;;;;;;5058542;28;20046;-88
2022/04/13 07:31:05;;;;;;;5.80;2.70;;;13.00;99.90;;;;;;5076501;28;20104;-87
2022/04/13 07:33:30;;;;;;;12.38;2.90;;;13.10;99.90;;;;;;5058399;28;20028;-87
2022/04/13 07:35:58;;;;;;;4.55;2.55;;;13.20;99.90;;;;;;5076417;28;20025;-87
2022/04/13 07:38:24;;;;;;;10.75;3.22;;;13.40;99.90;;;;;;5076425;28;20025;-87
2022/04/13 07:40:51;;;;;;;4.38;2.38;;;13.50;99.90;;;;;;5076297;28;20428;-87
2022/04/13 07:43:18;;;;;;;8.93;2.65;;;13.60;99.90;;;;;;5076009;28;20024;-88
2022/04/13 07:45:45;;;;;;;5.93;2.38;;;13.70;99.90;;;;;;5076284;28;20537;-87
2022/04/13 07:48:10;;;;;;;6.72;2.45;;;13.80;99.90;;;;;;5076033;28;20074;-87
2022/04/13 07:50:37;;;;;;;7.28;2.47;;;13.80;99.90;;;;;;5076177;28;20020;-87
2022/04/13 07:53:02;;;;;;;3.78;2.25;;;13.90;99.90;;;;;;5075931;28;20025;-87
2022/04/13 07:55:37;;;;;;;7.22;3.40;;;14.00;99.90;;;;;;5076044;28;20033;-87
2022/04/13 07:58:03;;;;;;;13.52;3.45;;;14.10;99.90;;;;;;5076054;28;20443;-88
2022/04/13 08:00:29;;;;;;;15.18;3.13;;;14.20;99.90;;;;;;5075630;28;20129;-87
2022/04/13 08:02:54;;;;;;;11.25;3.00;;;14.40;99.90;;;;;;5076228;28;20025;-87
2022/04/13 08:05:22;;;;;;;7.22;2.95;;;14.40;99.90;;;;;;5075799;28;20036;-87
2022/04/13 08:07:47;;;;;;;7.32;2.35;;;14.50;99.90;;;;;;5057988;28;20031;-87
2022/04/13 08:10:17;;;;;;;7.40;2.35;;;14.50;99.90;;;;;;5075651;28;20369;-87
2022/04/13 08:12:46;;;;;;;4.47;2.38;;;14.60;99.90;;;;;;5075087;28;20036;-87
2022/04/13 08:15:13;;;;;;;5.78;2.28;;;14.60;99.90;;;;;;5074893;28;20020;-87
2022/04/13 08:17:40;;;;;;;10.13;3.00;;;14.60;99.90;;;;;;5075642;28;20384;-88
2022/04/13 08:20:13;;;;;;;7.50;3.28;;;14.70;99.90;;;;;;5057381;28;20380;-87
2022/04/13 08:22:39;;;;;;;10.75;3.63;;;14.70;99.90;;;;;;5057639;28;20020;-87
2022/04/13 08:25:05;;;;;;;14.55;3.80;;;14.80;99.90;;;;;;5074913;28;20045;-87
2022/04/13 08:27:31;;;;;;;6.00;3.70;;;14.80;99.90;;;;;;5075428;28;20429;-87
2022/04/13 08:30:15;;;;;;;13.02;4.00;;;14.80;99.90;;;;;;5057193;28;20028;-87
2022/04/13 08:32:41;;;;;;;7.93;3.83;;;14.80;99.90;;;;;;5075434;28;20104;-87
2022/04/13 08:35:13;;;;;;;11.43;3.67;;;14.80;99.90;;;;;;5074498;28;20067;-87
2022/04/13 08:37:39;;;;;;;10.60;3.55;;;14.90;99.90;;;;;;5075254;28;20495;-87
2022/04/13 08:40:07;;;;;;;8.18;3.45;;;14.90;99.90;;;;;;5075172;28;20029;-87
2022/04/13 08:45:44;;;;;;;16.60;3.42;;;15.10;99.90;;;;;;5075191;28;20506;-87
2022/04/13 08:48:11;;;;;;;7.32;2.33;;;15.20;99.80;;;;;;5057489;28;20043;-87
2022/04/13 08:51:00;;;;;;;9.65;2.08;;;15.30;99.90;;;;;;5075124;28;20028;-87
2022/04/13 08:53:30;;;;;;;6.50;2.03;;;15.40;97.50;;;;;;5056950;28;20028;-87
2022/04/13 08:56:18;;;;;;;3.38;1.50;;;15.40;95.20;;;;;;5074944;28;20384;-87
2022/04/13 08:59:23;;;;;;;3.53;2.10;;;15.50;90.50;;;;;;5056416;28;20052;-87
2022/04/13 09:02:17;;;;;;;4.82;2.05;;;15.50;83.90;;;;;;5074273;28;20095;-87
2022/04/13 09:04:45;;;;;;;3.03;1.67;;;15.60;85.60;;;;;;5074440;28;20025;-87
2022/04/13 09:07:17;;;;;;;4.72;2.20;;;15.70;93.30;;;;;;5056722;28;20024;-88
2022/04/13 09:09:46;;;;;;;2.83;1.77;;;15.80;95.40;;;;;;5074917;28;20021;-87
2022/04/13 09:12:25;;;;;;;6.88;2.38;;;15.80;94.10;;;;;;5074590;28;20107;-87
2022/04/13 09:14:51;;;;;;;3.53;2.13;;;15.90;94.20;;;;;;5074207;28;20636;-87
2022/04/13 09:17:31;;;;;;;7.05;2.53;;;16.00;93.70;;;;;;5074588;28;20021;-88
2022/04/13 09:19:58;;;;;;;5.43;2.50;;;16.10;95.30;;;;;;5056399;28;20050;-87
2022/04/13 09:22:32;;;;;;;5.72;1.85;;;16.20;94.90;;;;;;5074735;28;20024;-87
2022/04/13 09:25:10;;;;;;;8.25;2.40;;;16.30;97.60;;;;;;5074404;28;20373;-87
2022/04/13 09:27:37;;;;;;;16.73;3.88;;;16.40;93.20;;;;;;5074493;28;20430;-88
2022/04/13 09:30:06;;;;;;;7.40;2.30;;;16.50;95.10;;;;;;5074030;28;20055;-88
2022/04/13 09:32:32;;;;;;;6.60;2.22;;;16.60;97.50;;;;;;5065934;28;20037;-87
2022/04/13 09:35:02;;;;;;;6.95;2.35;;;16.60;97.20;;;;;;5074214;28;20013;-88
2022/04/13 09:37:28;;;;;;;10.05;3.33;;;16.60;98.50;;;;;;5074148;28;20048;-87
2022/04/13 09:40:09;;;;;;;12.75;3.55;;;16.70;99.90;;;;;;5073738;28;20024;-87
2022/04/13 09:42:36;;;;;;;15.65;4.90;;;16.70;99.90;;;;;;5073885;28;20032;-87
2022/04/13 09:45:08;;;;;;;8.88;3.60;;;16.80;99.90;;;;;;5073709;28;20032;-88
2022/04/13 09:47:33;;;;;;;25.88;4.88;;;16.80;99.90;;;;;;5073718;28;20032;-88
2022/04/13 09:50:25;;;;;;;23.88;4.90;;;16.90;99.90;;;;;;5073928;28;20036;-88
2022/04/13 09:52:57;;;;;;;21.77;4.88;;;17.00;99.90;;;;;;5073606;28;20419;-88
2022/04/13 09:55:23;;;;;;;18.50;3.92;;;17.00;99.90;;;;;;5073839;28;20029;-79
2022/04/13 09:57:48;;;;;;;19.60;4.55;;;17.00;99.90;;;;;;5055474;28;20564;-78
2022/04/13 10:00:14;;;;;;;12.70;4.30;;;17.10;99.90;;;;;;5055858;28;20021;-78
2022/04/13 10:02:42;;;;;;;25.15;4.82;;;17.20;99.90;;;;;;5073520;28;20032;-78
2022/04/13 10:05:38;;;;;;;8.63;3.70;;;17.20;99.90;;;;;;5073618;28;20056;-86
2022/04/13 10:08:09;;;;;;;14.40;3.47;;;17.30;99.90;;;;;;5073596;28;20025;-87
2022/04/13 10:10:56;;;;;;;7.47;3.22;;;17.40;99.90;;;;;;5073503;28;20052;-87
2022/04/13 10:13:32;;;;;;;19.65;3.40;;;17.50;99.90;;;;;;5073131;28;20025;-87
2022/04/13 10:16:03;;;;;;;10.80;3.90;;;17.60;99.90;;;;;;5073443;28;20021;-87
2022/04/13 10:18:31;;;;;;;6.18;2.83;;;17.70;99.90;;;;;;5055643;28;20024;-87
2022/04/13 10:21:45;;;;;;;10.15;3.05;;;17.70;98.40;;;;;;5073361;28;20103;-88
2022/04/13 10:24:29;;;;;;;9.00;2.95;;;17.90;97.00;;;;;;5073076;28;20032;-87
2022/04/13 10:27:08;;;;;;;13.00;3.20;;;18.00;93.30;;;;;;5073095;28;20381;-87
2022/04/13 10:29:49;;;;;;;7.57;2.70;;;18.10;90.30;;;;;;5072815;28;20024;-86
2022/04/13 10:32:22;;;;;;;4.15;2.55;;;18.20;89.90;;;;;;5073000;28;20029;-87
2022/04/13 10:34:59;;;;;;;10.73;3.15;;;18.20;90.00;;;;;;5072962;28;20372;-87
2022/04/13 10:37:26;;;;;;;12.32;3.05;;;18.30;82.70;;;;;;5055069;28;20107;-87
2022/04/13 10:39:53;;;;;;;11.55;2.80;;;18.30;82.10;;;;;;5054958;28;20027;-87
2022/04/13 10:42:20;;;;;;;7.78;2.90;;;18.40;78.30;;;;;;5054886;28;20408;-87
2022/04/13 10:45:06;;;;;;;10.20;2.80;;;18.50;77.20;;;;;;5054732;28;20384;-87
2022/04/13 10:48:05;;;;;;;13.23;2.67;;;18.60;74.00;;;;;;5072801;28;20480;-87
2022/04/13 10:50:59;;;;;;;6.80;2.80;;;18.60;72.00;;;;;;5054668;28;20029;-87
2022/04/13 10:53:29;;;;;;;7.55;2.33;;;18.70;69.00;;;;;;5054591;28;20499;-87
2022/04/13 10:56:08;;;;;;;4.47;2.63;;;18.70;70.30;;;;;;5054622;28;20499;-86
2022/04/13 10:59:14;;;;;;;6.50;2.75;;;18.90;71.80;;;;;;5052904;28;20059;-86
2022/04/13 11:01:53;;;;;;;13.68;2.58;;;19.00;71.90;;;;;;4955430;28;20019;-87
2022/04/13 11:04:21;;;;;;;3.47;2.33;;;19.10;72.90;;;;;;5044965;28;20036;-87
2022/04/13 11:06:57;;;;;;;10.25;2.95;;;19.10;70.80;;;;;;5072537;28;20096;-87
2022/04/13 11:09:29;;;;;;;11.30;2.80;;;19.10;65.50;;;;;;5072643;28;20036;-86
2022/04/13 11:11:56;;;;;;;6.07;2.15;;;19.20;63.70;;;;;;5054005;28;20028;-78
2022/04/13 11:14:23;;;;;;;8.88;2.22;;;19.20;62.50;;;;;;5072007;28;20024;-78
2022/04/13 11:17:05;;;;;;;14.20;2.65;;;19.30;63.50;;;;;;5072344;28;20027;-78
2022/04/13 11:19:32;;;;;;;8.55;2.85;;;19.30;64.20;;;;;;5072387;28;20082;-78
2022/04/13 11:22:18;;;;;;;11.60;2.47;;;19.40;63.20;;;;;;5072176;28;20059;-78
2022/04/13 11:24:47;;;;;;;7.40;2.25;;;19.50;64.70;;;;;;5072252;28;20047;-79
2022/04/13 11:27:13;;;;;;;10.50;2.88;;;19.50;62.90;;;;;;5054048;28;20028;-78
2022/04/13 11:29:41;;;;;;;4.82;2.50;;;19.60;61.60;;;;;;5072012;28;20032;-78
2022/04/13 11:32:11;;;;;;;9.32;2.90;;;19.60;62.10;;;;;;5072223;28;20422;-78
2022/04/13 11:34:45;;;;;;;5.90;3.00;;;19.70;62.30;;;;;;5054043;28;20028;-78
2022/04/13 11:37:16;;;;;;;10.63;3.50;;;19.70;63.10;;;;;;5071144;28;20025;-78
2022/04/13 11:39:57;;;;;;;5.80;2.75;;;19.80;61.90;;;;;;5071825;28;20021;-78
2022/04/13 11:42:25;;;;;;;13.27;3.00;;;19.90;63.70;;;;;;5072026;28;20025;-78
2022/04/13 11:44:51;;;;;;;9.38;2.83;;;20.00;57.90;;;;;;5053541;28;20029;-78
2022/04/13 11:47:18;;;;;;;4.65;2.67;;;20.00;57.80;;;;;;5072326;28;20047;-78
2022/04/13 11:50:00;;;;;;;11.13;2.08;;;20.10;57.40;;;;;;5072012;28;20033;-78
2022/04/13 11:52:49;;;;;;;5.00;2.47;;;20.10;56.70;;;;;;5072032;28;20536;-78
2022/04/13 11:55:21;;;;;;;5.60;2.03;;;20.20;57.20;;;;;;5071889;28;20477;-78
2022/04/13 11:57:59;;;;;;;8.38;2.53;;;20.20;57.10;;;;;;5053846;28;20116;-78
2022/04/13 12:01:03;;;;;;;12.60;2.53;;;20.30;57.40;;;;;;5072043;28;20373;-78
2022/04/13 12:03:33;;;;;;;8.00;2.05;;;20.50;57.10;;;;;;5071468;28;20021;-79
2022/04/13 12:06:13;;;;;;;6.82;2.20;;;20.60;55.80;;;;;;5072050;28;20111;-78
2022/04/13 12:08:45;;;;;;;6.90;2.65;;;20.70;54.70;;;;;;5071991;28;20025;-78
2022/04/13 12:11:24;;;;;;;9.80;2.45;;;20.80;57.30;;;;;;5056726;28;20028;-78
2022/04/13 12:13:54;;;;;;;8.52;2.90;;;21.00;55.00;;;;;;5074491;28;20032;-78
2022/04/13 12:16:23;;;;;;;5.00;2.88;;;21.10;52.80;;;;;;5075089;28;20060;-78
2022/04/13 12:18:49;;;;;;;3.95;2.28;;;21.20;53.40;;;;;;5074547;28;20490;-78
2022/04/13 12:21:16;;;;;;;4.78;2.42;;;21.20;53.20;;;;;;5074955;28;20025;-78
2022/04/13 12:23:44;;;;;;;12.85;3.03;;;21.20;52.70;;;;;;5074987;28;20032;-78
2022/04/13 12:26:09;;;;;;;17.45;8.50;;;21.20;54.40;;;;;;5056820;28;20051;-77
2022/04/13 12:28:37;;;;;;;19.25;10.75;;;21.50;65.50;;;;;;5074640;28;20468;-77
2022/04/13 12:31:08;;;;;;;26.13;10.90;;;21.60;65.70;;;;;;5075197;28;20124;-77
2022/04/13 12:33:36;;;;;;;18.13;10.30;;;21.70;69.10;;;;;;5074439;28;20020;-78
2022/04/13 12:36:06;;;;;;;16.52;8.13;;;21.80;66.10;;;;;;5075104;28;20035;-78
2022/04/13 12:38:42;;;;;;;16.55;9.38;;;21.90;65.30;;;;;;5074930;28;20024;-78
2022/04/13 12:41:18;;;;;;;21.13;11.15;;;21.90;61.30;;;;;;5075130;28;20356;-78
2022/04/13 12:43:54;;;;;;;15.38;10.20;;;21.80;63.00;;;;;;5074540;28;20032;-78
2022/04/13 12:46:20;;;;;;;;;;;21.80;64.10;;;;;;5075612;28;20403;-78
2022/04/13 12:48:51;;;;;;;27.17;11.85;;;21.70;66.40;;;;;;5075114;28;19916;-78
2022/04/13 12:51:17;;;;;;;26.63;11.50;;;21.80;64.60;;;;;;5074880;28;20526;-78
2022/04/13 12:53:50;;;;;;;22.92;12.95;;;21.80;64.10;;;;;;5074492;28;20492;-77
2022/04/13 12:56:19;;;;;;;17.05;10.23;;;21.90;65.70;;;;;;5074864;28;20035;-78
2022/04/13 12:58:45;;;;;;;16.02;8.93;;;21.90;62.50;;;;;;5074303;28;20036;-78
2022/04/13 13:01:24;;;;;;;32.20;12.73;;;21.80;67.00;;;;;;5074399;28;20033;-77
2022/04/13 13:03:50;;;;;;;21.48;12.25;;;21.70;68.20;;;;;;5057100;28;20396;-78
2022/04/13 13:06:16;;;;;;;18.20;11.75;;;21.60;66.00;;;;;;5074402;28;20040;-78
2022/04/13 13:08:55;;;;;;;23.95;13.88;;;21.50;64.20;;;;;;5073872;28;20032;-78
2022/04/13 13:11:22;;;;;;;23.10;14.35;;;21.40;66.40;;;;;;5071463;28;20040;-78